Weather at Ezpeleta Airport

Public forecast

Using degrees Celsius for public forecast. Weather courtesy of forecast.io.

Closest aviation weather report (METAR) to Ezpeleta Airport

Closest report is Jorge Newbery Airpark, 15.4 nm (28.5 km) NW. Retrieved 2022/01/27 12:00 UTC (16 minutes ago):

SABE 271200Z 15012KT 110V190 CAVOK 18/09 Q1021 NOSIG RMK PP000

Closest aviation forecast (TAF) to Ezpeleta Airport

Closest forecast is Jorge Newbery Airpark, 15.4 nm (28.5 km) NW. Retrieved 2022/01/27 12:50 UTC (0 seconds ago):

TAF COR SABE 271145Z 2712/2812 16015G25KT CAVOK TX24/2718Z TN18/2809Z BECMG 2714/2716 16015KT 9999 SCT030 BECMG 2717/2719 09015KT BECMG 2807/2809 06010KT